TAM3994 SBRF-SBFN
Flight info
| Callsign | TAM3994 |
|---|---|
| Flight time | 0h 53m |
| Altitude | 35000 |
| Route | FNR |
| Aircraft | A319/M-SDE3FGHIRWY/LB1 |
Departure
| Time | 2026-04-27 18:15 |
|---|---|
| Airport | Recife/Guararapes - Gilberto Freyre International Airport (SBRF) |
Arrival
| Time | 2026-04-27 19:09 |
|---|---|
| Airport | Fernando de Noronha Airport (SBFN) |
| Time | Latitude | Longitude | Altitude | Speed | Heading |
|---|---|---|---|---|---|
| 2026-04-27 17:51 | -8.13088 | -34.91926 | 44 ft | 0 kts | 72° |
| 2026-04-27 18:05 | -8.13089 | -34.91928 | 46 ft | 2 kts | 71° |
| 2026-04-27 18:05 | -8.13097 | -34.91951 | 46 ft | 3 kts | 69° |
| 2026-04-27 18:05 | -8.13106 | -34.91973 | 44 ft | 3 kts | 61° |
| 2026-04-27 18:05 | -8.13120 | -34.91993 | 46 ft | 3 kts | 39° |
| 2026-04-27 18:06 | -8.13137 | -34.92001 | 44 ft | 2 kts | 343° |
| 2026-04-27 18:06 | -8.13138 | -34.92000 | 44 ft | 0 kts | 342° |
| 2026-04-27 18:09 | -8.13137 | -34.92001 | 45 ft | 1 kts | 342° |
| 2026-04-27 18:09 | -8.13121 | -34.92006 | 44 ft | 3 kts | 342° |
| 2026-04-27 18:10 | -8.13096 | -34.92014 | 47 ft | 4 kts | 342° |
| 2026-04-27 18:10 | -8.13064 | -34.92025 | 47 ft | 5 kts | 342° |
| 2026-04-27 18:10 | -8.13024 | -34.92038 | 48 ft | 7 kts | 342° |
| 2026-04-27 18:10 | -8.12974 | -34.92054 | 46 ft | 8 kts | 342° |
| 2026-04-27 18:11 | -8.12911 | -34.92074 | 46 ft | 11 kts | 342° |
| 2026-04-27 18:11 | -8.12832 | -34.92100 | 47 ft | 13 kts | 342° |
| 2026-04-27 18:11 | -8.12742 | -34.92129 | 48 ft | 14 kts | 342° |
| 2026-04-27 18:11 | -8.12648 | -34.92160 | 49 ft | 14 kts | 342° |
| 2026-04-27 18:12 | -8.12550 | -34.92195 | 47 ft | 16 kts | 341° |
| 2026-04-27 18:12 | -8.12438 | -34.92232 | 48 ft | 18 kts | 342° |
| 2026-04-27 18:12 | -8.12317 | -34.92271 | 46 ft | 19 kts | 342° |
| 2026-04-27 18:12 | -8.12185 | -34.92315 | 45 ft | 22 kts | 342° |
| 2026-04-27 18:13 | -8.12030 | -34.92366 | 40 ft | 25 kts | 341° |
| 2026-04-27 18:13 | -8.11875 | -34.92417 | 41 ft | 21 kts | 342° |
| 2026-04-27 18:13 | -8.11730 | -34.92465 | 38 ft | 23 kts | 342° |
| 2026-04-27 18:13 | -8.11624 | -34.92501 | 42 ft | 11 kts | 338° |
| 2026-04-27 18:14 | -8.11560 | -34.92552 | 45 ft | 13 kts | 319° |
| 2026-04-27 18:14 | -8.11485 | -34.92617 | 45 ft | 13 kts | 320° |
| 2026-04-27 18:14 | -8.11451 | -34.92682 | 45 ft | 13 kts | 250° |
| 2026-04-27 18:14 | -8.11542 | -34.92678 | 44 ft | 24 kts | 162° |
| 2026-04-27 18:15 | -8.11933 | -34.92549 | 44 ft | 91 kts | 161° |
| 2026-04-27 18:15 | -8.12709 | -34.92290 | 56 ft | 142 kts | 161° |
| 2026-04-27 18:15 | -8.13656 | -34.91969 | 589 ft | 145 kts | 158° |
| 2026-04-27 18:15 | -8.14660 | -34.91641 | 949 ft | 162 kts | 163° |
| 2026-04-27 18:16 | -8.15811 | -34.91271 | 1261 ft | 185 kts | 162° |
| 2026-04-27 18:16 | -8.17124 | -34.90848 | 1731 ft | 206 kts | 161° |
| 2026-04-27 18:16 | -8.18498 | -34.90405 | 2657 ft | 208 kts | 161° |
| 2026-04-27 18:16 | -8.19883 | -34.89928 | 3453 ft | 218 kts | 154° |
| 2026-04-27 18:17 | -8.21009 | -34.88825 | 3890 ft | 244 kts | 116° |
| 2026-04-27 18:17 | -8.21206 | -34.87075 | 4569 ft | 265 kts | 78° |
| 2026-04-27 18:17 | -8.20417 | -34.85365 | 5510 ft | 274 kts | 58° |
| 2026-04-27 18:17 | -8.19239 | -34.83831 | 6463 ft | 279 kts | 51° |
| 2026-04-27 18:18 | -8.17952 | -34.82354 | 7408 ft | 281 kts | 50° |
| 2026-04-27 18:18 | -8.16676 | -34.80875 | 8335 ft | 285 kts | 51° |
| 2026-04-27 18:18 | -8.15411 | -34.79327 | 9261 ft | 287 kts | 53° |
| 2026-04-27 18:18 | -8.14177 | -34.77728 | 10114 ft | 292 kts | 55° |
| 2026-04-27 18:19 | -8.12909 | -34.76019 | 10407 ft | 315 kts | 56° |
| 2026-04-27 18:19 | -8.11596 | -34.74198 | 10929 ft | 325 kts | 56° |
| 2026-04-27 18:19 | -8.10264 | -34.72330 | 11633 ft | 330 kts | 56° |
| 2026-04-27 18:19 | -8.08915 | -34.70435 | 12384 ft | 334 kts | 56° |
| 2026-04-27 18:20 | -8.07538 | -34.68534 | 13140 ft | 337 kts | 55° |
| 2026-04-27 18:20 | -8.06124 | -34.66631 | 13815 ft | 341 kts | 54° |
| 2026-04-27 18:20 | -8.04682 | -34.64713 | 14433 ft | 344 kts | 54° |
| 2026-04-27 18:20 | -8.03227 | -34.62785 | 15035 ft | 347 kts | 54° |
| 2026-04-27 18:21 | -8.01755 | -34.60834 | 15633 ft | 350 kts | 54° |
| 2026-04-27 18:21 | -8.00275 | -34.58867 | 16237 ft | 353 kts | 54° |
| 2026-04-27 18:21 | -7.98784 | -34.56880 | 16833 ft | 356 kts | 54° |
| 2026-04-27 18:21 | -7.97284 | -34.54876 | 17417 ft | 360 kts | 54° |
| 2026-04-27 18:22 | -7.95790 | -34.52880 | 17998 ft | 363 kts | 54° |
| 2026-04-27 18:22 | -7.94071 | -34.50996 | 18549 ft | 369 kts | 43° |
| 2026-04-27 18:22 | -7.91975 | -34.49476 | 19113 ft | 374 kts | 32° |
| 2026-04-27 18:22 | -7.89630 | -34.48309 | 19659 ft | 377 kts | 28° |
| 2026-04-27 18:23 | -7.87251 | -34.47174 | 20183 ft | 379 kts | 28° |
| 2026-04-27 18:23 | -7.84856 | -34.46033 | 20692 ft | 381 kts | 28° |
| 2026-04-27 18:23 | -7.82452 | -34.44885 | 21176 ft | 383 kts | 28° |
| 2026-04-27 18:23 | -7.80037 | -34.43728 | 21648 ft | 385 kts | 29° |
| 2026-04-27 18:24 | -7.77605 | -34.42562 | 22121 ft | 388 kts | 29° |
| 2026-04-27 18:24 | -7.75160 | -34.41391 | 22584 ft | 390 kts | 29° |
| 2026-04-27 18:24 | -7.72703 | -34.40214 | 23040 ft | 392 kts | 29° |
| 2026-04-27 18:24 | -7.70235 | -34.39032 | 23495 ft | 394 kts | 29° |
| 2026-04-27 18:25 | -7.67747 | -34.37842 | 23870 ft | 396 kts | 29° |
| 2026-04-27 18:25 | -7.65248 | -34.36645 | 24226 ft | 399 kts | 29° |
| 2026-04-27 18:25 | -7.62768 | -34.35459 | 24570 ft | 401 kts | 29° |
| 2026-04-27 18:25 | -7.60240 | -34.34248 | 24915 ft | 404 kts | 29° |
| 2026-04-27 18:26 | -7.57693 | -34.33030 | 25256 ft | 407 kts | 29° |
| 2026-04-27 18:26 | -7.55129 | -34.31805 | 25600 ft | 409 kts | 28° |
| 2026-04-27 18:26 | -7.52546 | -34.30573 | 25959 ft | 412 kts | 28° |
| 2026-04-27 18:26 | -7.49949 | -34.29332 | 26324 ft | 414 kts | 28° |
| 2026-04-27 18:27 | -7.47336 | -34.28082 | 26656 ft | 417 kts | 28° |
| 2026-04-27 18:27 | -7.44709 | -34.26826 | 26983 ft | 419 kts | 28° |
| 2026-04-27 18:27 | -7.42064 | -34.25561 | 27308 ft | 422 kts | 28° |
| 2026-04-27 18:27 | -7.39405 | -34.24290 | 27618 ft | 424 kts | 28° |
| 2026-04-27 18:28 | -7.36729 | -34.23011 | 27931 ft | 427 kts | 28° |
| 2026-04-27 18:28 | -7.34035 | -34.21723 | 28245 ft | 429 kts | 28° |
| 2026-04-27 18:28 | -7.31330 | -34.20428 | 28543 ft | 432 kts | 28° |
| 2026-04-27 18:28 | -7.28605 | -34.19126 | 28845 ft | 435 kts | 28° |
| 2026-04-27 18:29 | -7.25869 | -34.17820 | 29148 ft | 437 kts | 28° |
| 2026-04-27 18:29 | -7.23111 | -34.16506 | 29452 ft | 439 kts | 28° |
| 2026-04-27 18:29 | -7.20338 | -34.15185 | 29784 ft | 442 kts | 28° |
| 2026-04-27 18:29 | -7.17554 | -34.13861 | 30064 ft | 444 kts | 28° |
| 2026-04-27 18:30 | -7.15702 | -34.12979 | 30236 ft | 445 kts | 28° |
| 2026-04-27 18:30 | -7.12898 | -34.11642 | 30494 ft | 448 kts | 28° |
| 2026-04-27 18:30 | -7.10075 | -34.10297 | 30753 ft | 450 kts | 28° |
| 2026-04-27 18:30 | -7.07242 | -34.08945 | 31013 ft | 451 kts | 28° |
| 2026-04-27 18:31 | -7.04397 | -34.07587 | 31267 ft | 453 kts | 28° |
| 2026-04-27 18:31 | -7.01541 | -34.06223 | 31518 ft | 455 kts | 28° |
| 2026-04-27 18:31 | -6.98671 | -34.04854 | 31829 ft | 455 kts | 27° |
| 2026-04-27 18:31 | -6.95811 | -34.03490 | 32205 ft | 455 kts | 27° |
| 2026-04-27 18:32 | -6.92031 | -34.01685 | 32698 ft | 454 kts | 28° |
| 2026-04-27 18:32 | -6.90106 | -34.00766 | 32958 ft | 453 kts | 27° |
| 2026-04-27 18:32 | -6.87260 | -33.99412 | 33336 ft | 453 kts | 27° |
| 2026-04-27 18:32 | -6.84410 | -33.98056 | 33709 ft | 452 kts | 27° |
| 2026-04-27 18:33 | -6.81571 | -33.96701 | 34055 ft | 452 kts | 27° |
| 2026-04-27 18:33 | -6.78731 | -33.95347 | 34394 ft | 450 kts | 27° |
| 2026-04-27 18:33 | -6.75908 | -33.94002 | 34757 ft | 448 kts | 27° |
| 2026-04-27 18:33 | -6.73090 | -33.92657 | 34907 ft | 447 kts | 27° |
| 2026-04-27 18:34 | -6.67585 | -33.90038 | 34940 ft | 431 kts | 27° |
| 2026-04-27 18:34 | -6.62193 | -33.87471 | 34940 ft | 428 kts | 27° |
| 2026-04-27 18:35 | -6.56849 | -33.84925 | 34942 ft | 427 kts | 27° |
| 2026-04-27 18:35 | -6.51469 | -33.82371 | 34942 ft | 427 kts | 27° |
| 2026-04-27 18:36 | -6.46100 | -33.79814 | 34938 ft | 427 kts | 27° |
| 2026-04-27 18:36 | -6.40731 | -33.77257 | 34937 ft | 427 kts | 27° |
| 2026-04-27 18:37 | -6.35364 | -33.74704 | 34937 ft | 427 kts | 27° |
| 2026-04-27 18:37 | -6.29996 | -33.72155 | 34940 ft | 426 kts | 27° |
| 2026-04-27 18:38 | -6.24635 | -33.69603 | 34943 ft | 426 kts | 27° |
| 2026-04-27 18:38 | -6.19272 | -33.67054 | 34938 ft | 426 kts | 27° |
| 2026-04-27 18:39 | -6.13915 | -33.64507 | 34935 ft | 426 kts | 27° |
| 2026-04-27 18:39 | -6.08547 | -33.61965 | 34934 ft | 427 kts | 27° |
| 2026-04-27 18:40 | -6.03180 | -33.59414 | 34935 ft | 427 kts | 27° |
| 2026-04-27 18:40 | -5.97812 | -33.56868 | 34939 ft | 427 kts | 28° |
| 2026-04-27 18:41 | -5.92443 | -33.54318 | 34941 ft | 426 kts | 28° |
| 2026-04-27 18:41 | -5.87081 | -33.51773 | 34939 ft | 426 kts | 28° |
| 2026-04-27 18:42 | -5.82630 | -33.49662 | 34935 ft | 426 kts | 28° |
| 2026-04-27 18:42 | -5.76370 | -33.46689 | 34933 ft | 426 kts | 28° |
| 2026-04-27 18:43 | -5.71017 | -33.44152 | 34931 ft | 425 kts | 28° |
| 2026-04-27 18:43 | -5.65666 | -33.41610 | 34928 ft | 425 kts | 28° |
| 2026-04-27 18:44 | -5.60317 | -33.39076 | 34766 ft | 427 kts | 28° |
| 2026-04-27 18:44 | -5.57615 | -33.37796 | 34273 ft | 432 kts | 28° |
| 2026-04-27 18:44 | -5.54926 | -33.36519 | 33793 ft | 435 kts | 28° |
| 2026-04-27 18:45 | -5.52182 | -33.35215 | 33291 ft | 437 kts | 28° |
| 2026-04-27 18:45 | -5.49427 | -33.33909 | 32818 ft | 439 kts | 28° |
| 2026-04-27 18:45 | -5.46659 | -33.32600 | 32338 ft | 440 kts | 28° |
| 2026-04-27 18:45 | -5.43879 | -33.31290 | 31866 ft | 442 kts | 28° |
| 2026-04-27 18:46 | -5.41097 | -33.29975 | 31452 ft | 441 kts | 28° |
| 2026-04-27 18:46 | -5.38340 | -33.28671 | 31224 ft | 436 kts | 28° |
| 2026-04-27 18:46 | -5.35598 | -33.27371 | 30838 ft | 434 kts | 28° |
| 2026-04-27 18:46 | -5.32874 | -33.26081 | 30369 ft | 431 kts | 28° |
| 2026-04-27 18:47 | -5.30162 | -33.24799 | 29896 ft | 429 kts | 28° |
| 2026-04-27 18:47 | -5.27473 | -33.23527 | 29346 ft | 425 kts | 28° |
| 2026-04-27 18:47 | -5.24815 | -33.22267 | 28861 ft | 420 kts | 28° |
| 2026-04-27 18:47 | -5.22175 | -33.21015 | 28304 ft | 418 kts | 28° |
| 2026-04-27 18:48 | -5.19567 | -33.19781 | 27918 ft | 411 kts | 28° |
| 2026-04-27 18:48 | -5.16997 | -33.18564 | 27515 ft | 406 kts | 29° |
| 2026-04-27 18:48 | -5.14438 | -33.17351 | 27107 ft | 406 kts | 29° |
| 2026-04-27 18:48 | -5.11888 | -33.16141 | 26693 ft | 406 kts | 29° |
| 2026-04-27 18:49 | -5.09334 | -33.14931 | 26268 ft | 406 kts | 29° |
| 2026-04-27 18:49 | -5.06788 | -33.13724 | 25970 ft | 402 kts | 29° |
| 2026-04-27 18:49 | -5.04254 | -33.12524 | 25545 ft | 402 kts | 29° |
| 2026-04-27 18:49 | -5.01781 | -33.11358 | 25173 ft | 396 kts | 29° |
| 2026-04-27 18:50 | -4.99293 | -33.10183 | 24716 ft | 394 kts | 29° |
| 2026-04-27 18:50 | -4.96814 | -33.09013 | 24266 ft | 391 kts | 29° |
| 2026-04-27 18:50 | -4.94365 | -33.07859 | 23735 ft | 387 kts | 29° |
| 2026-04-27 18:50 | -4.91937 | -33.06713 | 23139 ft | 383 kts | 29° |
| 2026-04-27 18:51 | -4.89551 | -33.05586 | 22691 ft | 374 kts | 29° |
| 2026-04-27 18:51 | -4.87226 | -33.04486 | 22260 ft | 365 kts | 29° |
| 2026-04-27 18:51 | -4.84955 | -33.03413 | 21844 ft | 356 kts | 29° |
| 2026-04-27 18:51 | -4.82724 | -33.02359 | 21435 ft | 355 kts | 29° |
| 2026-04-27 18:52 | -4.80490 | -33.01299 | 21021 ft | 356 kts | 29° |
| 2026-04-27 18:52 | -4.78252 | -33.00237 | 20604 ft | 357 kts | 28° |
| 2026-04-27 18:52 | -4.76006 | -32.99172 | 20183 ft | 358 kts | 28° |
| 2026-04-27 18:53 | -4.71490 | -32.97040 | 19332 ft | 360 kts | 28° |
| 2026-04-27 18:53 | -4.69221 | -32.95970 | 18906 ft | 361 kts | 28° |
| 2026-04-27 18:53 | -4.66946 | -32.94893 | 18479 ft | 361 kts | 28° |
| 2026-04-27 18:53 | -4.64673 | -32.93816 | 18117 ft | 360 kts | 28° |
| 2026-04-27 18:54 | -4.62422 | -32.92753 | 17579 ft | 357 kts | 28° |
| 2026-04-27 18:54 | -4.60220 | -32.91716 | 17167 ft | 351 kts | 28° |
| 2026-04-27 18:54 | -4.58029 | -32.90685 | 16756 ft | 345 kts | 28° |
| 2026-04-27 18:54 | -4.55871 | -32.89667 | 16353 ft | 340 kts | 28° |
| 2026-04-27 18:55 | -4.53739 | -32.88661 | 15950 ft | 339 kts | 28° |
| 2026-04-27 18:55 | -4.51607 | -32.87654 | 15550 ft | 339 kts | 28° |
| 2026-04-27 18:55 | -4.49475 | -32.86644 | 15152 ft | 339 kts | 28° |
| 2026-04-27 18:55 | -4.47337 | -32.85631 | 14756 ft | 339 kts | 27° |
| 2026-04-27 18:56 | -4.45202 | -32.84623 | 14351 ft | 340 kts | 27° |
| 2026-04-27 18:56 | -4.43061 | -32.83614 | 14014 ft | 337 kts | 27° |
| 2026-04-27 18:56 | -4.40952 | -32.82618 | 13541 ft | 334 kts | 27° |
| 2026-04-27 18:56 | -4.38861 | -32.81632 | 13118 ft | 329 kts | 27° |
| 2026-04-27 18:57 | -4.36807 | -32.80662 | 12736 ft | 323 kts | 27° |
| 2026-04-27 18:57 | -4.34787 | -32.79707 | 12342 ft | 319 kts | 27° |
| 2026-04-27 18:57 | -4.32797 | -32.78768 | 11963 ft | 314 kts | 27° |
| 2026-04-27 18:57 | -4.30857 | -32.77854 | 11595 ft | 311 kts | 27° |
| 2026-04-27 18:58 | -4.28920 | -32.76941 | 11298 ft | 306 kts | 27° |
| 2026-04-27 18:58 | -4.27618 | -32.76326 | 11060 ft | 307 kts | 27° |
| 2026-04-27 18:58 | -4.25046 | -32.75112 | 10565 ft | 310 kts | 27° |
| 2026-04-27 18:58 | -4.23093 | -32.74190 | 10191 ft | 311 kts | 27° |
| 2026-04-27 18:59 | -4.21129 | -32.73263 | 9887 ft | 310 kts | 27° |
| 2026-04-27 18:59 | -4.19203 | -32.72352 | 9744 ft | 303 kts | 27° |
| 2026-04-27 18:59 | -4.17305 | -32.71456 | 9441 ft | 299 kts | 27° |
| 2026-04-27 18:59 | -4.15430 | -32.70573 | 8911 ft | 298 kts | 26° |
| 2026-04-27 19:00 | -4.13563 | -32.69693 | 8424 ft | 295 kts | 26° |
| 2026-04-27 19:00 | -4.11708 | -32.68820 | 7986 ft | 295 kts | 26° |
| 2026-04-27 19:00 | -4.09859 | -32.67949 | 7734 ft | 292 kts | 26° |
| 2026-04-27 19:00 | -4.08013 | -32.67078 | 7396 ft | 291 kts | 26° |
| 2026-04-27 19:01 | -4.06193 | -32.66220 | 7042 ft | 289 kts | 26° |
| 2026-04-27 19:01 | -4.04378 | -32.65364 | 6674 ft | 287 kts | 26° |
| 2026-04-27 19:01 | -4.02571 | -32.64512 | 6305 ft | 285 kts | 26° |
| 2026-04-27 19:01 | -4.00788 | -32.63671 | 5849 ft | 281 kts | 26° |
| 2026-04-27 19:02 | -3.99065 | -32.62857 | 5729 ft | 266 kts | 26° |
| 2026-04-27 19:02 | -3.97437 | -32.62090 | 5617 ft | 251 kts | 26° |
| 2026-04-27 19:02 | -3.95910 | -32.61370 | 5506 ft | 234 kts | 26° |
| 2026-04-27 19:02 | -3.94476 | -32.60720 | 5407 ft | 218 kts | 20° |
| 2026-04-27 19:03 | -3.93051 | -32.60443 | 5268 ft | 205 kts | 6° |
| 2026-04-27 19:03 | -3.91607 | -32.60334 | 4739 ft | 210 kts | 6° |
| 2026-04-27 19:03 | -3.90137 | -32.60221 | 4184 ft | 213 kts | 5° |
| 2026-04-27 19:03 | -3.89155 | -32.60146 | 3869 ft | 213 kts | 5° |
| 2026-04-27 19:04 | -3.87261 | -32.60002 | 3583 ft | 194 kts | 6° |
| 2026-04-27 19:04 | -3.85981 | -32.59903 | 3475 ft | 181 kts | 6° |
| 2026-04-27 19:04 | -3.84866 | -32.59481 | 3377 ft | 168 kts | 40° |
| 2026-04-27 19:04 | -3.84279 | -32.58533 | 3233 ft | 160 kts | 76° |
| 2026-04-27 19:05 | -3.84288 | -32.57452 | 3027 ft | 152 kts | 94° |
| 2026-04-27 19:05 | -3.84373 | -32.56412 | 2816 ft | 149 kts | 93° |
| 2026-04-27 19:05 | -3.84452 | -32.55388 | 2618 ft | 147 kts | 93° |
| 2026-04-27 19:05 | -3.84530 | -32.54370 | 2423 ft | 146 kts | 92° |
| 2026-04-27 19:06 | -3.84607 | -32.53355 | 2233 ft | 146 kts | 92° |
| 2026-04-27 19:06 | -3.84682 | -32.52348 | 2046 ft | 141 kts | 93° |
| 2026-04-27 19:06 | -3.84755 | -32.51389 | 1852 ft | 136 kts | 93° |
| 2026-04-27 19:06 | -3.84827 | -32.50450 | 1680 ft | 134 kts | 92° |
| 2026-04-27 19:07 | -3.84898 | -32.49520 | 1493 ft | 134 kts | 93° |
| 2026-04-27 19:07 | -3.84968 | -32.48595 | 1319 ft | 133 kts | 93° |
| 2026-04-27 19:07 | -3.85037 | -32.47674 | 1138 ft | 132 kts | 93° |
| 2026-04-27 19:07 | -3.85108 | -32.46756 | 974 ft | 132 kts | 92° |
| 2026-04-27 19:08 | -3.85179 | -32.45840 | 800 ft | 132 kts | 93° |
| 2026-04-27 19:08 | -3.85248 | -32.44924 | 625 ft | 131 kts | 92° |
| 2026-04-27 19:08 | -3.85318 | -32.44006 | 446 ft | 132 kts | 92° |
| 2026-04-27 19:08 | -3.85388 | -32.43090 | 195 ft | 131 kts | 92° |
| 2026-04-27 19:09 | -3.85440 | -32.42339 | 168 ft | 71 kts | 94° |
| 2026-04-27 19:09 | -3.85465 | -32.42075 | 175 ft | 28 kts | 104° |
| 2026-04-27 19:09 | -3.85478 | -32.41860 | 175 ft | 34 kts | 91° |
| 2026-04-27 19:09 | -3.85493 | -32.41620 | 177 ft | 27 kts | 94° |
| 2026-04-27 19:10 | -3.85477 | -32.41501 | 176 ft | 9 kts | 114° |
| 2026-04-27 19:10 | -3.85503 | -32.41518 | 176 ft | 7 kts | 264° |
| 2026-04-27 19:10 | -3.85499 | -32.41581 | 177 ft | 11 kts | 275° |
| 2026-04-27 19:10 | -3.85494 | -32.41642 | 177 ft | 15 kts | 275° |
| 2026-04-27 19:11 | -3.85482 | -32.41824 | 175 ft | 24 kts | 273° |
| 2026-04-27 19:11 | -3.85466 | -32.42016 | 176 ft | 31 kts | 274° |
| 2026-04-27 19:11 | -3.85447 | -32.42265 | 169 ft | 41 kts | 274° |
| 2026-04-27 19:11 | -3.85432 | -32.42465 | 168 ft | 18 kts | 274° |
| 2026-04-27 19:12 | -3.85421 | -32.42607 | 168 ft | 17 kts | 274° |
| 2026-04-27 19:12 | -3.85416 | -32.42700 | 167 ft | 7 kts | 259° |
| 2026-04-27 19:12 | -3.85464 | -32.42743 | 166 ft | 12 kts | 204° |
| 2026-04-27 19:12 | -3.85518 | -32.42766 | 169 ft | 4 kts | 200° |
| 2026-04-27 19:13 | -3.85551 | -32.42783 | 170 ft | 7 kts | 231° |
| 2026-04-27 19:13 | -3.85557 | -32.42830 | 170 ft | 7 kts | 272° |
| 2026-04-27 19:13 | -3.85565 | -32.42863 | 170 ft | 4 kts | 210° |
| 2026-04-27 19:13 | -3.85585 | -32.42864 | 170 ft | 3 kts | 184° |
| 2026-04-27 19:14 | -3.85593 | -32.42865 | 170 ft | 2 kts | 186° |
| 2026-04-27 19:14 | -3.85597 | -32.42866 | 170 ft | 0 kts | 186° |